sensor_id;sensor_type;location;lat;lon;timestamp;P1;durP1;ratioP1;P2;durP2;ratioP2
18072;SDS011;9161;47.348;9.648;2023-05-29T00:00:28;10.90;;;5.40;;
18072;SDS011;9161;47.348;9.648;2023-05-29T00:05:30;11.67;;;5.03;;
18072;SDS011;9161;47.348;9.648;2023-05-29T00:10:33;10.57;;;4.77;;
18072;SDS011;9161;47.348;9.648;2023-05-29T00:15:38;12.23;;;4.90;;
18072;SDS011;9161;47.348;9.648;2023-05-29T00:20:41;13.20;;;5.67;;
18072;SDS011;9161;47.348;9.648;2023-05-29T00:25:43;8.90;;;4.60;;
18072;SDS011;9161;47.348;9.648;2023-05-29T00:30:47;11.80;;;4.90;;
18072;SDS011;9161;47.348;9.648;2023-05-29T00:35:49;10.90;;;5.27;;
18072;SDS011;9161;47.348;9.648;2023-05-29T00:40:51;13.00;;;4.60;;
18072;SDS011;9161;47.348;9.648;2023-05-29T00:45:55;10.70;;;5.10;;
18072;SDS011;9161;47.348;9.648;2023-05-29T00:50:57;9.63;;;4.60;;
18072;SDS011;9161;47.348;9.648;2023-05-29T00:55:59;9.60;;;4.70;;
18072;SDS011;9161;47.348;9.648;2023-05-29T01:01:03;10.23;;;4.50;;
18072;SDS011;9161;47.348;9.648;2023-05-29T01:06:06;9.80;;;4.87;;
18072;SDS011;9161;47.348;9.648;2023-05-29T01:11:12;11.07;;;5.10;;
18072;SDS011;9161;47.348;9.648;2023-05-29T01:16:30;12.53;;;4.67;;
18072;SDS011;9161;47.348;9.648;2023-05-29T01:21:41;10.40;;;3.80;;
18072;SDS011;9161;47.348;9.648;2023-05-29T01:26:59;7.73;;;4.20;;
18072;SDS011;9161;47.348;9.648;2023-05-29T01:32:04;9.53;;;4.40;;
18072;SDS011;9161;47.348;9.648;2023-05-29T01:37:06;9.53;;;3.70;;
18072;SDS011;9161;47.348;9.648;2023-05-29T01:42:10;10.67;;;4.40;;
18072;SDS011;9161;47.348;9.648;2023-05-29T01:47:13;6.50;;;3.40;;
18072;SDS011;9161;47.348;9.648;2023-05-29T01:52:15;8.57;;;3.53;;
18072;SDS011;9161;47.348;9.648;2023-05-29T01:57:19;10.90;;;4.30;;
18072;SDS011;9161;47.348;9.648;2023-05-29T02:02:22;11.23;;;4.97;;
18072;SDS011;9161;47.348;9.648;2023-05-29T02:07:24;8.00;;;4.20;;
18072;SDS011;9161;47.348;9.648;2023-05-29T02:12:28;7.40;;;3.80;;
18072;SDS011;9161;47.348;9.648;2023-05-29T02:17:30;6.87;;;4.10;;
18072;SDS011;9161;47.348;9.648;2023-05-29T02:22:33;12.03;;;5.47;;
18072;SDS011;9161;47.348;9.648;2023-05-29T02:27:36;10.93;;;4.47;;
18072;SDS011;9161;47.348;9.648;2023-05-29T02:32:39;9.10;;;4.50;;
18072;SDS011;9161;47.348;9.648;2023-05-29T02:37:41;10.73;;;5.37;;
18072;SDS011;9161;47.348;9.648;2023-05-29T02:42:47;13.00;;;5.13;;
18072;SDS011;9161;47.348;9.648;2023-05-29T02:47:49;12.40;;;6.10;;
18072;SDS011;9161;47.348;9.648;2023-05-29T02:52:51;9.70;;;4.40;;
18072;SDS011;9161;47.348;9.648;2023-05-29T02:57:55;9.13;;;5.27;;
18072;SDS011;9161;47.348;9.648;2023-05-29T03:02:57;9.97;;;4.90;;
18072;SDS011;9161;47.348;9.648;2023-05-29T03:07:59;9.23;;;4.60;;
18072;SDS011;9161;47.348;9.648;2023-05-29T03:13:03;10.33;;;4.90;;
18072;SDS011;9161;47.348;9.648;2023-05-29T03:18:05;9.57;;;3.97;;
18072;SDS011;9161;47.348;9.648;2023-05-29T03:23:07;9.67;;;4.07;;
18072;SDS011;9161;47.348;9.648;2023-05-29T03:28:11;9.77;;;4.40;;
18072;SDS011;9161;47.348;9.648;2023-05-29T03:33:13;7.07;;;4.07;;
18072;SDS011;9161;47.348;9.648;2023-05-29T03:38:15;8.97;;;3.53;;
18072;SDS011;9161;47.348;9.648;2023-05-29T03:43:19;8.53;;;4.37;;
18072;SDS011;9161;47.348;9.648;2023-05-29T03:48:21;8.73;;;4.40;;
18072;SDS011;9161;47.348;9.648;2023-05-29T03:53:23;8.60;;;3.90;;
18072;SDS011;9161;47.348;9.648;2023-05-29T03:58:27;9.80;;;4.60;;
18072;SDS011;9161;47.348;9.648;2023-05-29T04:03:29;10.10;;;4.77;;
18072;SDS011;9161;47.348;9.648;2023-05-29T04:08:32;9.30;;;5.10;;
18072;SDS011;9161;47.348;9.648;2023-05-29T04:13:36;11.03;;;4.80;;
18072;SDS011;9161;47.348;9.648;2023-05-29T04:18:38;13.03;;;6.17;;
18072;SDS011;9161;47.348;9.648;2023-05-29T04:23:40;15.07;;;5.70;;
18072;SDS011;9161;47.348;9.648;2023-05-29T04:28:44;17.20;;;5.63;;
18072;SDS011;9161;47.348;9.648;2023-05-29T04:33:46;11.03;;;5.20;;
18072;SDS011;9161;47.348;9.648;2023-05-29T04:38:49;15.77;;;6.27;;
18072;SDS011;9161;47.348;9.648;2023-05-29T04:43:53;13.03;;;5.50;;
18072;SDS011;9161;47.348;9.648;2023-05-29T04:48:55;13.63;;;6.10;;
18072;SDS011;9161;47.348;9.648;2023-05-29T04:53:57;15.47;;;7.00;;
18072;SDS011;9161;47.348;9.648;2023-05-29T04:59:01;12.70;;;6.50;;
18072;SDS011;9161;47.348;9.648;2023-05-29T05:04:03;15.67;;;6.60;;
18072;SDS011;9161;47.348;9.648;2023-05-29T05:09:06;14.17;;;6.63;;
18072;SDS011;9161;47.348;9.648;2023-05-29T05:14:09;12.43;;;6.63;;
18072;SDS011;9161;47.348;9.648;2023-05-29T05:19:11;12.73;;;6.77;;
18072;SDS011;9161;47.348;9.648;2023-05-29T05:24:13;11.47;;;5.80;;
18072;SDS011;9161;47.348;9.648;2023-05-29T05:29:16;14.13;;;5.93;;
18072;SDS011;9161;47.348;9.648;2023-05-29T05:34:20;13.33;;;6.47;;
18072;SDS011;9161;47.348;9.648;2023-05-29T05:39:22;11.43;;;5.60;;
18072;SDS011;9161;47.348;9.648;2023-05-29T05:44:25;11.70;;;5.43;;
18072;SDS011;9161;47.348;9.648;2023-05-29T05:49:27;11.83;;;6.70;;
18072;SDS011;9161;47.348;9.648;2023-05-29T05:54:29;10.97;;;5.83;;
18072;SDS011;9161;47.348;9.648;2023-05-29T05:59:33;8.63;;;4.67;;
18072;SDS011;9161;47.348;9.648;2023-05-29T06:04:35;13.40;;;5.97;;
18072;SDS011;9161;47.348;9.648;2023-05-29T06:09:38;11.63;;;5.30;;
18072;SDS011;9161;47.348;9.648;2023-05-29T06:14:42;10.97;;;5.57;;
18072;SDS011;9161;47.348;9.648;2023-05-29T06:19:44;12.93;;;4.97;;
18072;SDS011;9161;47.348;9.648;2023-05-29T06:24:46;11.40;;;5.20;;
18072;SDS011;9161;47.348;9.648;2023-05-29T06:29:49;13.50;;;5.80;;
18072;SDS011;9161;47.348;9.648;2023-05-29T06:34:51;12.37;;;5.77;;
18072;SDS011;9161;47.348;9.648;2023-05-29T06:39:54;12.80;;;5.80;;
18072;SDS011;9161;47.348;9.648;2023-05-29T06:44:57;8.75;;;5.25;;
18072;SDS011;9161;47.348;9.648;2023-05-29T06:49:59;13.00;;;5.50;;
18072;SDS011;9161;47.348;9.648;2023-05-29T06:55:02;11.82;;;4.72;;
18072;SDS011;9161;47.348;9.648;2023-05-29T07:00:07;11.30;;;5.90;;
18072;SDS011;9161;47.348;9.648;2023-05-29T07:05:11;12.80;;;5.45;;
18072;SDS011;9161;47.348;9.648;2023-05-29T07:10:13;9.02;;;5.18;;
18072;SDS011;9161;47.348;9.648;2023-05-29T07:15:17;9.30;;;5.25;;
18072;SDS011;9161;47.348;9.648;2023-05-29T07:20:19;14.65;;;5.57;;
18072;SDS011;9161;47.348;9.648;2023-05-29T07:25:23;9.43;;;5.47;;
18072;SDS011;9161;47.348;9.648;2023-05-29T07:30:28;19.02;;;5.57;;
18072;SDS011;9161;47.348;9.648;2023-05-29T07:35:30;9.77;;;4.85;;
18072;SDS011;9161;47.348;9.648;2023-05-29T07:40:33;10.95;;;5.18;;
18072;SDS011;9161;47.348;9.648;2023-05-29T07:45:37;15.73;;;4.95;;
18072;SDS011;9161;47.348;9.648;2023-05-29T07:50:39;38.83;;;6.10;;
18072;SDS011;9161;47.348;9.648;2023-05-29T07:55:42;11.48;;;5.05;;
18072;SDS011;9161;47.348;9.648;2023-05-29T08:00:45;9.63;;;5.47;;
18072;SDS011;9161;47.348;9.648;2023-05-29T08:05:49;11.68;;;4.40;;
18072;SDS011;9161;47.348;9.648;2023-05-29T08:10:51;11.25;;;5.30;;
18072;SDS011;9161;47.348;9.648;2023-05-29T08:15:54;7.95;;;4.13;;
18072;SDS011;9161;47.348;9.648;2023-05-29T08:20:56;13.77;;;4.55;;
18072;SDS011;9161;47.348;9.648;2023-05-29T08:25:59;9.75;;;4.82;;
18072;SDS011;9161;47.348;9.648;2023-05-29T08:31:04;7.97;;;4.45;;
18072;SDS011;9161;47.348;9.648;2023-05-29T08:36:07;69.43;;;7.10;;
18072;SDS011;9161;47.348;9.648;2023-05-29T08:41:10;7.53;;;4.03;;
18072;SDS011;9161;47.348;9.648;2023-05-29T08:46:16;17.92;;;4.78;;
18072;SDS011;9161;47.348;9.648;2023-05-29T08:51:20;18.33;;;4.78;;
18072;SDS011;9161;47.348;9.648;2023-05-29T08:56:29;8.60;;;4.07;;
18072;SDS011;9161;47.348;9.648;2023-05-29T09:01:36;9.70;;;4.13;;
18072;SDS011;9161;47.348;9.648;2023-05-29T09:06:40;13.02;;;4.47;;
18072;SDS011;9161;47.348;9.648;2023-05-29T09:11:43;11.18;;;4.72;;
18072;SDS011;9161;47.348;9.648;2023-05-29T09:16:47;12.50;;;4.65;;
18072;SDS011;9161;47.348;9.648;2023-05-29T09:21:49;13.60;;;4.88;;
18072;SDS011;9161;47.348;9.648;2023-05-29T09:26:51;8.82;;;4.75;;
18072;SDS011;9161;47.348;9.648;2023-05-29T09:31:55;11.48;;;4.50;;
18072;SDS011;9161;47.348;9.648;2023-05-29T09:37:00;15.02;;;5.10;;
18072;SDS011;9161;47.348;9.648;2023-05-29T09:42:09;7.88;;;4.50;;
18072;SDS011;9161;47.348;9.648;2023-05-29T09:47:16;12.30;;;4.80;;
18072;SDS011;9161;47.348;9.648;2023-05-29T09:52:20;8.75;;;4.75;;
18072;SDS011;9161;47.348;9.648;2023-05-29T09:57:24;10.00;;;4.35;;
18072;SDS011;9161;47.348;9.648;2023-05-29T10:02:29;9.63;;;4.70;;
18072;SDS011;9161;47.348;9.648;2023-05-29T10:07:34;9.15;;;4.80;;
18072;SDS011;9161;47.348;9.648;2023-05-29T10:12:38;6.75;;;4.22;;
18072;SDS011;9161;47.348;9.648;2023-05-29T10:17:44;8.45;;;4.45;;
18072;SDS011;9161;47.348;9.648;2023-05-29T10:22:52;10.93;;;4.70;;
18072;SDS011;9161;47.348;9.648;2023-05-29T10:27:58;10.55;;;4.43;;
18072;SDS011;9161;47.348;9.648;2023-05-29T10:38:44;10.68;;;4.90;;
18072;SDS011;9161;47.348;9.648;2023-05-29T10:43:46;8.35;;;4.45;;
18072;SDS011;9161;47.348;9.648;2023-05-29T10:48:49;11.95;;;4.68;;
18072;SDS011;9161;47.348;9.648;2023-05-29T10:53:53;7.82;;;4.15;;
18072;SDS011;9161;47.348;9.648;2023-05-29T10:58:57;10.50;;;4.88;;
18072;SDS011;9161;47.348;9.648;2023-05-29T11:09:33;11.40;;;4.95;;
18072;SDS011;9161;47.348;9.648;2023-05-29T11:14:47;8.57;;;4.97;;
18072;SDS011;9161;47.348;9.648;2023-05-29T11:19:54;9.18;;;4.43;;
18072;SDS011;9161;47.348;9.648;2023-05-29T11:24:59;23.30;;;4.85;;
18072;SDS011;9161;47.348;9.648;2023-05-29T11:30:05;15.70;;;5.18;;
18072;SDS011;9161;47.348;9.648;2023-05-29T11:35:08;14.50;;;4.63;;
18072;SDS011;9161;47.348;9.648;2023-05-29T11:40:14;9.40;;;4.22;;
18072;SDS011;9161;47.348;9.648;2023-05-29T11:45:17;11.10;;;4.45;;
18072;SDS011;9161;47.348;9.648;2023-05-29T11:50:20;7.18;;;4.05;;
18072;SDS011;9161;47.348;9.648;2023-05-29T11:55:25;8.05;;;4.38;;
18072;SDS011;9161;47.348;9.648;2023-05-29T12:00:30;5.63;;;3.42;;
18072;SDS011;9161;47.348;9.648;2023-05-29T12:05:43;11.65;;;4.25;;
18072;SDS011;9161;47.348;9.648;2023-05-29T12:10:48;7.63;;;3.97;;
18072;SDS011;9161;47.348;9.648;2023-05-29T12:15:52;6.00;;;3.42;;
18072;SDS011;9161;47.348;9.648;2023-05-29T12:20:57;5.78;;;4.10;;
18072;SDS011;9161;47.348;9.648;2023-05-29T12:26:01;7.47;;;3.78;;
18072;SDS011;9161;47.348;9.648;2023-05-29T12:31:06;7.25;;;3.63;;
18072;SDS011;9161;47.348;9.648;2023-05-29T12:36:08;8.00;;;4.05;;
18072;SDS011;9161;47.348;9.648;2023-05-29T12:41:22;6.15;;;3.35;;
18072;SDS011;9161;47.348;9.648;2023-05-29T12:46:34;26.17;;;4.78;;
18072;SDS011;9161;47.348;9.648;2023-05-29T12:51:40;5.32;;;3.58;;
18072;SDS011;9161;47.348;9.648;2023-05-29T12:56:44;22.27;;;4.60;;
18072;SDS011;9161;47.348;9.648;2023-05-29T13:01:47;9.00;;;3.67;;
18072;SDS011;9161;47.348;9.648;2023-05-29T13:06:49;7.28;;;3.67;;
18072;SDS011;9161;47.348;9.648;2023-05-29T13:11:53;8.10;;;3.70;;
18072;SDS011;9161;47.348;9.648;2023-05-29T13:16:55;41.53;;;5.93;;
18072;SDS011;9161;47.348;9.648;2023-05-29T13:21:57;9.20;;;3.60;;
18072;SDS011;9161;47.348;9.648;2023-05-29T13:27:01;7.00;;;3.28;;
18072;SDS011;9161;47.348;9.648;2023-05-29T13:32:03;5.85;;;3.47;;
18072;SDS011;9161;47.348;9.648;2023-05-29T13:37:06;8.57;;;3.45;;
18072;SDS011;9161;47.348;9.648;2023-05-29T13:42:10;12.68;;;4.18;;
18072;SDS011;9161;47.348;9.648;2023-05-29T13:47:12;11.77;;;3.55;;
18072;SDS011;9161;47.348;9.648;2023-05-29T13:52:14;8.50;;;3.80;;
18072;SDS011;9161;47.348;9.648;2023-05-29T13:57:18;8.90;;;4.05;;
18072;SDS011;9161;47.348;9.648;2023-05-29T14:02:20;35.90;;;4.90;;
18072;SDS011;9161;47.348;9.648;2023-05-29T14:07:23;22.50;;;4.55;;
18072;SDS011;9161;47.348;9.648;2023-05-29T14:12:26;10.82;;;3.40;;
18072;SDS011;9161;47.348;9.648;2023-05-29T14:17:28;74.68;;;7.53;;
18072;SDS011;9161;47.348;9.648;2023-05-29T14:22:31;9.95;;;3.65;;
18072;SDS011;9161;47.348;9.648;2023-05-29T14:27:34;11.13;;;4.05;;
18072;SDS011;9161;47.348;9.648;2023-05-29T14:32:36;6.45;;;3.95;;
18072;SDS011;9161;47.348;9.648;2023-05-29T14:37:38;6.35;;;3.83;;
18072;SDS011;9161;47.348;9.648;2023-05-29T14:42:42;13.20;;;3.90;;
18072;SDS011;9161;47.348;9.648;2023-05-29T14:47:46;6.47;;;3.78;;
18072;SDS011;9161;47.348;9.648;2023-05-29T14:52:49;9.98;;;4.10;;
18072;SDS011;9161;47.348;9.648;2023-05-29T14:57:52;8.10;;;3.90;;
18072;SDS011;9161;47.348;9.648;2023-05-29T15:02:55;12.00;;;4.20;;
18072;SDS011;9161;47.348;9.648;2023-05-29T15:07:59;7.15;;;4.50;;
18072;SDS011;9161;47.348;9.648;2023-05-29T15:13:02;78.40;;;7.50;;
18072;SDS011;9161;47.348;9.648;2023-05-29T15:18:07;17.50;;;4.50;;
18072;SDS011;9161;47.348;9.648;2023-05-29T15:23:09;8.70;;;4.30;;
18072;SDS011;9161;47.348;9.648;2023-05-29T15:28:13;6.70;;;4.07;;
18072;SDS011;9161;47.348;9.648;2023-05-29T15:33:15;9.60;;;3.80;;
18072;SDS011;9161;47.348;9.648;2023-05-29T15:38:18;9.85;;;4.47;;
18072;SDS011;9161;47.348;9.648;2023-05-29T15:43:22;13.88;;;4.18;;
18072;SDS011;9161;47.348;9.648;2023-05-29T15:48:24;18.67;;;4.65;;
18072;SDS011;9161;47.348;9.648;2023-05-29T15:53:26;8.27;;;4.13;;
18072;SDS011;9161;47.348;9.648;2023-05-29T15:58:30;9.73;;;4.78;;
18072;SDS011;9161;47.348;9.648;2023-05-29T16:03:32;6.15;;;3.90;;
18072;SDS011;9161;47.348;9.648;2023-05-29T16:08:35;45.38;;;5.85;;
18072;SDS011;9161;47.348;9.648;2023-05-29T16:13:38;8.63;;;3.80;;
18072;SDS011;9161;47.348;9.648;2023-05-29T16:18:42;9.75;;;4.18;;
18072;SDS011;9161;47.348;9.648;2023-05-29T16:23:44;7.70;;;3.50;;
18072;SDS011;9161;47.348;9.648;2023-05-29T16:28:48;8.05;;;4.07;;
18072;SDS011;9161;47.348;9.648;2023-05-29T16:33:50;11.57;;;3.83;;
18072;SDS011;9161;47.348;9.648;2023-05-29T16:38:52;9.20;;;4.20;;
18072;SDS011;9161;47.348;9.648;2023-05-29T16:43:56;47.80;;;5.80;;
18072;SDS011;9161;47.348;9.648;2023-05-29T16:48:58;19.30;;;4.85;;
18072;SDS011;9161;47.348;9.648;2023-05-29T16:54:01;6.47;;;3.72;;
18072;SDS011;9161;47.348;9.648;2023-05-29T16:59:05;17.67;;;4.88;;
18072;SDS011;9161;47.348;9.648;2023-05-29T17:04:07;15.18;;;5.35;;
18072;SDS011;9161;47.348;9.648;2023-05-29T17:09:11;15.80;;;4.90;;
18072;SDS011;9161;47.348;9.648;2023-05-29T17:14:15;12.73;;;5.03;;
18072;SDS011;9161;47.348;9.648;2023-05-29T17:19:17;11.23;;;5.10;;
18072;SDS011;9161;47.348;9.648;2023-05-29T17:24:20;11.48;;;4.63;;
18072;SDS011;9161;47.348;9.648;2023-05-29T17:29:24;8.82;;;3.92;;
18072;SDS011;9161;47.348;9.648;2023-05-29T17:34:27;7.40;;;3.60;;
18072;SDS011;9161;47.348;9.648;2023-05-29T17:39:29;10.27;;;3.80;;
18072;SDS011;9161;47.348;9.648;2023-05-29T17:44:33;12.88;;;4.15;;
18072;SDS011;9161;47.348;9.648;2023-05-29T17:49:36;9.52;;;3.85;;
18072;SDS011;9161;47.348;9.648;2023-05-29T17:54:38;8.77;;;3.90;;
18072;SDS011;9161;47.348;9.648;2023-05-29T17:59:42;15.70;;;4.10;;
18072;SDS011;9161;47.348;9.648;2023-05-29T18:04:45;10.43;;;4.28;;
18072;SDS011;9161;47.348;9.648;2023-05-29T18:09:50;8.23;;;4.07;;
18072;SDS011;9161;47.348;9.648;2023-05-29T18:14:54;8.18;;;3.75;;
18072;SDS011;9161;47.348;9.648;2023-05-29T18:19:56;9.90;;;4.05;;
18072;SDS011;9161;47.348;9.648;2023-05-29T18:24:58;6.90;;;3.63;;
18072;SDS011;9161;47.348;9.648;2023-05-29T18:30:03;8.82;;;3.72;;
18072;SDS011;9161;47.348;9.648;2023-05-29T18:35:07;7.30;;;4.20;;
18072;SDS011;9161;47.348;9.648;2023-05-29T18:40:10;7.85;;;4.07;;
18072;SDS011;9161;47.348;9.648;2023-05-29T18:45:15;11.57;;;3.20;;
18072;SDS011;9161;47.348;9.648;2023-05-29T18:50:18;7.18;;;4.13;;
18072;SDS011;9161;47.348;9.648;2023-05-29T18:55:20;9.85;;;3.70;;
18072;SDS011;9161;47.348;9.648;2023-05-29T19:00:25;6.28;;;3.65;;
18072;SDS011;9161;47.348;9.648;2023-05-29T19:05:28;9.13;;;3.60;;
18072;SDS011;9161;47.348;9.648;2023-05-29T19:10:30;10.00;;;3.47;;
18072;SDS011;9161;47.348;9.648;2023-05-29T19:15:34;8.82;;;3.25;;
18072;SDS011;9161;47.348;9.648;2023-05-29T19:20:36;6.97;;;3.15;;
18072;SDS011;9161;47.348;9.648;2023-05-29T19:25:40;6.38;;;3.33;;
18072;SDS011;9161;47.348;9.648;2023-05-29T19:30:44;7.65;;;3.10;;
18072;SDS011;9161;47.348;9.648;2023-05-29T19:35:53;9.07;;;3.25;;
18072;SDS011;9161;47.348;9.648;2023-05-29T19:41:21;11.73;;;3.42;;
18072;SDS011;9161;47.348;9.648;2023-05-29T19:46:38;7.20;;;3.13;;
18072;SDS011;9161;47.348;9.648;2023-05-29T19:51:40;8.70;;;4.57;;
18072;SDS011;9161;47.348;9.648;2023-05-29T19:56:43;7.22;;;3.38;;
18072;SDS011;9161;47.348;9.648;2023-05-29T20:01:48;7.15;;;4.05;;
18072;SDS011;9161;47.348;9.648;2023-05-29T20:06:50;6.50;;;3.47;;
18072;SDS011;9161;47.348;9.648;2023-05-29T20:11:53;6.00;;;3.33;;
18072;SDS011;9161;47.348;9.648;2023-05-29T20:16:56;7.15;;;3.58;;
18072;SDS011;9161;47.348;9.648;2023-05-29T20:21:59;6.53;;;3.50;;
18072;SDS011;9161;47.348;9.648;2023-05-29T20:27:01;8.07;;;3.63;;
18072;SDS011;9161;47.348;9.648;2023-05-29T20:32:05;6.20;;;2.88;;
18072;SDS011;9161;47.348;9.648;2023-05-29T20:37:08;6.05;;;2.88;;
18072;SDS011;9161;47.348;9.648;2023-05-29T20:42:11;9.80;;;3.45;;
18072;SDS011;9161;47.348;9.648;2023-05-29T20:47:16;7.28;;;3.58;;
18072;SDS011;9161;47.348;9.648;2023-05-29T20:52:20;7.68;;;3.72;;
18072;SDS011;9161;47.348;9.648;2023-05-29T20:57:22;6.03;;;3.33;;
18072;SDS011;9161;47.348;9.648;2023-05-29T21:02:26;8.50;;;3.73;;
18072;SDS011;9161;47.348;9.648;2023-05-29T21:07:28;7.53;;;3.20;;
18072;SDS011;9161;47.348;9.648;2023-05-29T21:12:35;12.13;;;3.70;;
18072;SDS011;9161;47.348;9.648;2023-05-29T21:17:40;6.43;;;3.37;;
18072;SDS011;9161;47.348;9.648;2023-05-29T21:22:43;8.77;;;3.77;;
18072;SDS011;9161;47.348;9.648;2023-05-29T21:27:45;7.47;;;3.30;;
18072;SDS011;9161;47.348;9.648;2023-05-29T21:32:49;6.53;;;3.30;;
18072;SDS011;9161;47.348;9.648;2023-05-29T21:37:52;7.97;;;3.70;;
18072;SDS011;9161;47.348;9.648;2023-05-29T21:42:54;8.17;;;3.00;;
18072;SDS011;9161;47.348;9.648;2023-05-29T21:47:58;6.43;;;3.40;;
18072;SDS011;9161;47.348;9.648;2023-05-29T21:53:01;11.40;;;3.73;;
18072;SDS011;9161;47.348;9.648;2023-05-29T21:58:03;8.77;;;3.70;;
18072;SDS011;9161;47.348;9.648;2023-05-29T22:03:07;7.90;;;3.50;;
18072;SDS011;9161;47.348;9.648;2023-05-29T22:08:10;9.47;;;3.60;;
18072;SDS011;9161;47.348;9.648;2023-05-29T22:13:12;8.17;;;3.60;;
18072;SDS011;9161;47.348;9.648;2023-05-29T22:18:16;6.50;;;3.20;;
18072;SDS011;9161;47.348;9.648;2023-05-29T22:23:18;8.70;;;3.47;;
18072;SDS011;9161;47.348;9.648;2023-05-29T22:28:22;8.33;;;4.00;;
18072;SDS011;9161;47.348;9.648;2023-05-29T22:33:26;8.50;;;4.00;;
18072;SDS011;9161;47.348;9.648;2023-05-29T22:38:30;7.77;;;3.17;;
18072;SDS011;9161;47.348;9.648;2023-05-29T22:43:32;10.27;;;3.93;;
18072;SDS011;9161;47.348;9.648;2023-05-29T22:48:36;7.33;;;3.20;;
18072;SDS011;9161;47.348;9.648;2023-05-29T22:53:38;8.17;;;3.83;;
18072;SDS011;9161;47.348;9.648;2023-05-29T22:58:40;6.40;;;3.33;;
18072;SDS011;9161;47.348;9.648;2023-05-29T23:03:44;9.53;;;3.70;;
18072;SDS011;9161;47.348;9.648;2023-05-29T23:08:47;7.77;;;3.83;;
18072;SDS011;9161;47.348;9.648;2023-05-29T23:13:49;10.63;;;3.80;;
18072;SDS011;9161;47.348;9.648;2023-05-29T23:18:53;6.07;;;3.23;;
18072;SDS011;9161;47.348;9.648;2023-05-29T23:23:58;6.93;;;3.67;;
18072;SDS011;9161;47.348;9.648;2023-05-29T23:29:00;9.03;;;3.70;;
18072;SDS011;9161;47.348;9.648;2023-05-29T23:34:04;7.00;;;3.73;;
18072;SDS011;9161;47.348;9.648;2023-05-29T23:39:06;5.63;;;3.80;;
18072;SDS011;9161;47.348;9.648;2023-05-29T23:44:09;7.30;;;3.83;;
18072;SDS011;9161;47.348;9.648;2023-05-29T23:49:13;8.63;;;3.93;;
18072;SDS011;9161;47.348;9.648;2023-05-29T23:54:15;8.63;;;4.00;;
18072;SDS011;9161;47.348;9.648;2023-05-29T23:59:17;6.03;;;3.23;;
